Time;durP1;ratioP1;P1;durP2;ratioP2;P2;SDS_P1;SDS_P2;PMS_P1;PMS_P2;Temp;Humidity;BMP_temperature;BMP_pressure;BME280_temperature;BME280_humidity;BME280_pressure;Samples;Min_cycle;Max_cycle;Signal;HPM_P1;HPM_P2
2022/04/21 00:01:04;;;;;;;46.50;20.42;;;;;;;6.48;100.00;99242.25;5114935;28;20051;-76
2022/04/21 00:03:32;;;;;;;40.28;19.25;;;;;;;6.35;100.00;99239.31;5114903;28;20488;-76
2022/04/21 00:05:59;;;;;;;38.45;19.15;;;;;;;6.44;100.00;99225.44;5114151;28;20450;-76
2022/04/21 00:08:27;;;;;;;38.28;18.55;;;;;;;6.45;100.00;99229.00;5114076;28;20046;-76
2022/04/21 00:10:54;;;;;;;40.55;19.30;;;;;;;6.43;100.00;99230.88;5114709;28;20051;-76
2022/04/21 00:13:22;;;;;;;42.58;19.20;;;;;;;6.48;100.00;99223.47;5114267;28;20043;-81
2022/04/21 00:15:51;;;;;;;38.90;19.00;;;;;;;6.46;100.00;99212.81;5114138;28;20055;-76
2022/04/21 00:18:18;;;;;;;40.10;19.65;;;;;;;6.50;100.00;99205.50;5114286;28;20044;-76
2022/04/21 00:20:45;;;;;;;44.00;20.65;;;;;;;6.40;100.00;99207.75;5114308;28;20565;-76
2022/04/21 00:23:28;;;;;;;40.63;19.65;;;;;;;6.45;100.00;99210.22;5113509;28;20051;-76
2022/04/21 00:25:55;;;;;;;40.97;20.05;;;;;;;6.46;100.00;99209.28;5113947;28;20050;-76
2022/04/21 00:28:23;;;;;;;40.65;18.35;;;;;;;6.45;100.00;99212.91;5114274;28;20043;-76
2022/04/21 00:30:52;;;;;;;36.22;18.48;;;;;;;6.45;100.00;99211.06;5113979;28;20492;-76
2022/04/21 00:33:19;;;;;;;39.03;18.85;;;;;;;6.50;100.00;99200.13;5114211;27;20043;-76
2022/04/21 00:35:48;;;;;;;36.70;17.60;;;;;;;6.51;100.00;99193.81;5114036;28;20051;-76
2022/04/21 00:38:15;;;;;;;38.15;18.15;;;;;;;6.45;100.00;99197.66;5113904;28;20055;-76
2022/04/21 00:40:43;;;;;;;32.55;16.50;;;;;;;6.48;100.00;99193.97;5114284;28;20069;-76
2022/04/21 00:43:10;;;;;;;35.95;17.88;;;;;;;6.45;100.00;99192.28;5114021;28;20043;-75
2022/04/21 00:45:38;;;;;;;34.60;18.23;;;;;;;6.44;100.00;99189.69;5114042;27;20036;-76
2022/04/21 00:48:07;;;;;;;34.95;17.77;;;;;;;6.40;100.00;99182.75;5115259;28;20443;-76
2022/04/21 00:50:36;;;;;;;37.03;17.55;;;;;;;6.46;100.00;99179.75;5134552;27;20050;-76
2022/04/21 00:53:04;;;;;;;32.65;16.58;;;;;;;6.44;100.00;99189.69;5134041;27;20120;-75
2022/04/21 00:55:32;;;;;;;35.70;18.75;;;;;;;6.29;100.00;99181.44;5127924;27;20044;-75
2022/04/21 00:58:02;;;;;;;35.85;17.75;;;;;;;6.31;100.00;99190.28;5114033;28;20043;-75
2022/04/21 01:00:30;;;;;;;30.75;16.95;;;;;;;6.40;100.00;99180.94;5113845;27;20505;-76
2022/04/21 01:02:57;;;;;;;36.78;16.80;;;;;;;6.40;100.00;99190.81;5113833;27;20044;-76
2022/04/21 01:05:29;;;;;;;32.35;16.35;;;;;;;6.35;100.00;99191.91;5113507;28;20056;-75
2022/04/21 01:07:57;;;;;;;30.52;15.55;;;;;;;6.40;100.00;99193.47;5115393;28;20647;-76
2022/04/21 01:10:26;;;;;;;27.77;14.75;;;;;;;6.42;100.00;99183.53;5113687;28;20105;-76
2022/04/21 01:12:54;;;;;;;26.75;14.18;;;;;;;6.38;100.00;99189.06;5113530;28;20054;-76
2022/04/21 01:15:21;;;;;;;26.38;14.07;;;;;;;6.42;100.00;99186.22;5112973;27;20047;-76
2022/04/21 01:17:49;;;;;;;25.80;14.13;;;;;;;6.41;100.00;99184.50;5113442;27;20047;-76
2022/04/21 01:20:19;;;;;;;24.77;13.50;;;;;;;6.33;100.00;99183.06;5113098;27;20069;-76
2022/04/21 01:22:47;;;;;;;24.73;13.43;;;;;;;6.42;100.00;99187.09;5113065;27;20571;-76
2022/04/21 01:25:14;;;;;;;25.27;13.75;;;;;;;6.43;100.00;99185.28;5113514;27;20040;-76
2022/04/21 01:27:42;;;;;;;22.70;12.60;;;;;;;6.32;100.00;99175.97;5113688;28;20054;-76
2022/04/21 01:30:11;;;;;;;23.58;12.82;;;;;;;6.32;100.00;99175.97;5113330;27;20048;-76
2022/04/21 01:32:42;;;;;;;27.20;13.60;;;;;;;6.24;100.00;99172.75;5113122;27;20077;-76
2022/04/21 01:35:11;;;;;;;25.48;13.15;;;;;;;6.27;100.00;99171.75;5113571;28;20089;-76
2022/04/21 01:43:10;;;;;;;23.83;13.02;;;;;;;6.41;100.00;99165.72;5113721;28;20043;-76
2022/04/21 01:45:38;;;;;;;25.95;13.15;;;;;;;6.35;100.00;99158.81;5113112;28;20039;-76
2022/04/21 01:48:06;;;;;;;28.23;13.82;;;;;;;6.31;100.00;99157.25;5114708;28;20435;-76
2022/04/21 01:50:34;;;;;;;24.60;13.80;;;;;;;6.33;100.00;99144.63;5133626;27;20047;-76
2022/04/21 01:53:03;;;;;;;26.77;14.02;;;;;;;6.32;100.00;99143.78;5133813;27;20043;-76
2022/04/21 01:55:30;;;;;;;25.40;13.35;;;;;;;6.35;100.00;99134.69;5127772;27;20039;-76
2022/04/21 01:57:58;;;;;;;29.65;14.38;;;;;;;6.33;100.00;99134.78;5113384;28;20044;-76
2022/04/21 02:00:25;;;;;;;27.75;13.43;;;;;;;6.37;100.00;99133.69;5113362;28;20051;-76
2022/04/21 02:02:53;;;;;;;25.33;13.10;;;;;;;6.37;100.00;99139.03;5113161;28;20517;-76
2022/04/21 02:05:20;;;;;;;28.73;13.40;;;;;;;6.33;100.00;99134.78;5112273;27;20047;-76
2022/04/21 02:07:48;;;;;;;24.42;12.95;;;;;;;6.35;100.00;99127.53;5113136;28;20047;-76
2022/04/21 02:10:19;;;;;;;25.05;12.80;;;;;;;6.34;100.00;99124.91;5113253;28;20562;-75
2022/04/21 02:12:46;;;;;;;24.67;13.23;;;;;;;6.29;100.00;99130.50;5114764;28;20408;-76
2022/04/21 02:15:14;;;;;;;27.00;13.65;;;;;;;6.26;100.00;99129.78;5112817;28;20101;-76
2022/04/21 02:17:42;;;;;;;28.55;13.55;;;;;;;6.29;100.00;99124.28;5112837;28;20044;-76
2022/04/21 02:20:12;;;;;;;26.73;13.63;;;;;;;6.29;100.00;99121.59;5112616;28;20044;-76
2022/04/21 02:22:39;;;;;;;24.77;13.63;;;;;;;6.40;100.00;99123.75;5112935;28;20040;-78
2022/04/21 02:25:09;;;;;;;21.85;12.55;;;;;;;6.28;100.00;99123.38;5112923;28;20039;-79
2022/04/21 02:27:39;;;;;;;23.63;12.90;;;;;;;6.34;100.00;99117.75;5112866;28;20040;-81
2022/04/21 02:30:09;;;;;;;25.70;12.63;;;;;;;6.32;100.00;99118.75;5115467;28;20446;-76
2022/04/21 02:32:36;;;;;;;23.58;12.70;;;;;;;6.27;100.00;99112.75;5116348;28;20435;-76
2022/04/21 02:35:04;;;;;;;24.08;12.05;;;;;;;6.35;100.00;99111.44;5116001;28;20040;-76
2022/04/21 02:37:36;;;;;;;22.50;12.27;;;;;;;6.27;100.00;99110.94;5116518;28;20153;-77
2022/04/21 02:40:04;;;;;;;24.02;12.30;;;;;;;6.34;100.00;99098.09;5117953;28;20397;-75
2022/04/21 02:42:32;;;;;;;24.77;12.65;;;;;;;6.23;100.00;99099.50;5116191;28;20084;-76
2022/04/21 02:45:01;;;;;;;24.55;13.00;;;;;;;6.29;100.00;99100.13;5116179;27;20048;-76
2022/04/21 02:47:28;;;;;;;32.58;15.88;;;;;;;6.26;100.00;99097.59;5116237;28;20115;-76
2022/04/21 02:49:56;;;;;;;26.30;13.20;;;;;;;6.26;100.00;99093.09;5132529;27;20065;-76
2022/04/21 02:52:23;;;;;;;27.55;14.38;;;;;;;6.28;100.00;99093.03;5125800;27;20047;-76
2022/04/21 02:57:36;;;;;;;23.85;13.02;;;;;;;6.18;100.00;99085.47;5116751;28;20050;-76
2022/04/21 03:00:07;;;;;;;25.25;13.23;;;;;;;6.27;100.00;99096.66;5115579;28;20096;-76
2022/04/21 03:02:35;;;;;;;24.80;12.80;;;;;;;6.30;100.00;99092.00;5115845;28;20047;-81
2022/04/21 03:05:02;;;;;;;29.13;14.95;;;;;;;6.31;100.00;99088.38;5115731;28;20083;-76
2022/04/21 03:07:30;;;;;;;29.75;13.85;;;;;;;6.28;100.00;99085.84;5115965;28;20039;-76
2022/04/21 03:09:57;;;;;;;24.20;12.77;;;;;;;6.31;100.00;99084.81;5115575;28;20050;-76
2022/04/21 03:12:28;;;;;;;29.73;13.80;;;;;;;6.25;100.00;99083.31;5115708;28;20043;-76
2022/04/21 03:14:57;;;;;;;29.77;14.80;;;;;;;6.18;100.00;99082.78;5117001;27;20043;-79
2022/04/21 03:17:27;;;;;;;24.42;12.88;;;;;;;6.22;100.00;99072.75;5115254;28;20047;-82
2022/04/21 03:19:54;;;;;;;24.92;12.32;;;;;;;6.25;100.00;99082.47;5115658;28;20106;-82
2022/04/21 03:25:10;;;;;;;29.40;15.27;;;;;;;6.26;100.00;99074.31;5115841;28;20137;-78
2022/04/21 03:27:38;;;;;;;28.73;16.13;;;;;;;6.31;100.00;99076.78;5115345;28;20096;-76
2022/04/21 03:30:08;;;;;;;32.72;21.52;;;;;;;6.15;100.00;99072.22;5115666;28;20544;-76
2022/04/21 03:32:38;;;;;;;34.92;22.23;;;;;;;6.20;100.00;99064.78;5115089;28;20070;-80
2022/04/21 03:35:06;;;;;;;33.35;17.88;;;;;;;6.31;100.00;99066.91;5115234;28;20051;-76
2022/04/21 03:37:33;;;;;;;32.45;19.77;;;;;;;6.20;100.00;99067.47;5115089;28;20047;-76
2022/04/21 03:40:01;;;;;;;29.48;16.80;;;;;;;6.20;100.00;99074.63;5115388;28;20047;-77
2022/04/21 03:42:31;;;;;;;32.38;15.85;;;;;;;6.33;100.00;99073.09;5114920;28;20039;-76
2022/04/21 03:44:59;;;;;;;24.45;12.85;;;;;;;6.32;100.00;99076.72;5115960;27;20388;-77
2022/04/21 03:47:26;;;;;;;23.63;13.32;;;;;;;6.23;100.00;99067.31;5114926;28;20051;-82
2022/04/21 03:49:56;;;;;;;26.60;13.73;;;;;;;6.29;100.00;99067.94;5131503;27;20047;-76
2022/04/21 03:52:23;;;;;;;25.10;13.65;;;;;;;6.34;100.00;99074.81;5131205;27;20035;-76
2022/04/21 03:54:51;;;;;;;25.85;13.93;;;;;;;6.21;100.00;99073.69;5114828;28;20043;-76
2022/04/21 03:57:19;;;;;;;27.17;14.43;;;;;;;6.29;100.00;99074.16;5114737;28;20043;-76
2022/04/21 03:59:46;;;;;;;26.50;12.93;;;;;;;6.36;100.00;99070.25;5114566;28;20448;-76
2022/04/21 04:02:14;;;;;;;26.42;13.00;;;;;;;6.31;100.00;99066.91;5114294;28;20058;-76
2022/04/21 04:04:42;;;;;;;22.95;12.48;;;;;;;6.31;100.00;99066.91;5114211;28;20043;-76
2022/04/21 04:12:41;;;;;;;28.55;15.52;;;;;;;6.27;100.00;99068.00;5114447;28;20503;-76
2022/04/21 04:15:10;;;;;;;27.40;14.88;;;;;;;6.34;100.00;99072.16;5113825;28;20078;-78
2022/04/21 04:17:38;;;;;;;29.77;16.33;;;;;;;6.31;100.00;99066.91;5114235;27;20058;-76
2022/04/21 04:20:06;;;;;;;62.13;31.48;;;;;;;6.41;100.00;99066.47;5114286;28;20545;-76
2022/04/21 04:22:40;;;;;;;79.40;39.97;;;;;;;6.36;100.00;99064.88;5114065;28;20058;-76
2022/04/21 04:25:08;;;;;;;134.52;69.78;;;;;;;6.38;100.00;99071.03;5114577;28;20047;-76
2022/04/21 04:27:36;;;;;;;274.17;123.80;;;;;;;6.33;100.00;99074.88;5113592;28;20512;-76
2022/04/21 04:30:05;;;;;;;231.63;95.30;;;;;;;6.33;100.00;99070.41;5113712;28;20040;-76
2022/04/21 04:32:32;;;;;;;262.38;95.50;;;;;;;6.31;100.00;99074.94;5114043;28;20496;-77
2022/04/21 04:35:00;;;;;;;112.75;39.78;;;;;;;6.43;100.00;99078.81;5114136;28;20047;-76
2022/04/21 04:37:27;;;;;;;76.43;27.13;;;;;;;6.44;100.00;99077.03;5114235;28;20047;-75
2022/04/21 04:39:56;;;;;;;96.88;31.20;;;;;;;6.41;100.00;99079.88;5114204;28;20097;-76
2022/04/21 04:42:23;;;;;;;110.82;35.22;;;;;;;6.52;100.00;99077.50;5110103;28;20504;-75
2022/04/21 04:46:34;;;;;;;101.25;44.15;;;;;;;6.56;100.00;99076.38;5109945;27;20051;-75
2022/04/21 04:47:39;;;;;;;141.27;65.93;;;;;;;6.60;100.00;99074.44;5110149;28;20043;-76
2022/04/21 04:50:08;;;;;;;101.18;48.17;;;;;;;6.67;100.00;99067.78;5128731;27;20074;-77
2022/04/21 04:52:35;;;;;;;130.32;45.13;;;;;;;6.72;100.00;99065.72;5130277;27;20126;-78
2022/04/21 04:55:08;;;;;;;71.30;30.08;;;;;;;6.63;100.00;99066.22;5128792;27;20484;-76
2022/04/21 04:57:35;;;;;;;46.50;22.20;;;;;;;6.50;100.00;99071.34;5109735;28;20043;-76
2022/04/21 05:00:03;;;;;;;32.45;17.80;;;;;;;6.54;100.00;99072.91;5110101;28;20093;-76
2022/04/21 05:02:31;;;;;;;28.60;17.15;;;;;;;6.56;100.00;99075.53;5110117;28;20039;-76
2022/04/21 05:04:58;;;;;;;28.83;16.45;;;;;;;6.55;100.00;99066.59;5109951;28;20454;-76
2022/04/21 05:07:26;;;;;;;24.27;13.63;;;;;;;6.67;100.00;99065.94;5111560;27;20043;-76
2022/04/21 05:09:53;;;;;;;25.40;13.02;;;;;;;6.62;100.00;99076.06;5109781;28;20043;-76
2022/04/21 05:12:22;;;;;;;23.50;13.32;;;;;;;6.62;100.00;99073.38;5109937;28;20056;-76
2022/04/21 05:14:51;;;;;;;23.23;13.35;;;;;;;6.54;100.00;99067.56;5109742;27;20040;-76
2022/04/21 05:17:19;;;;;;;23.38;13.07;;;;;;;6.59;100.00;99070.84;5113485;27;20050;-76
2022/04/21 05:19:47;;;;;;;22.27;12.15;;;;;;;6.54;100.00;99067.56;5113573;27;20104;-76
2022/04/21 05:22:15;;;;;;;23.35;13.30;;;;;;;6.70;100.00;99064.06;5112987;28;20113;-76
2022/04/21 05:24:44;;;;;;;22.75;11.68;;;;;;;6.71;100.00;99076.53;5113681;27;20053;-76
2022/04/21 05:27:13;;;;;;;22.45;12.07;;;;;;;6.67;100.00;99067.78;5113642;27;20043;-76
2022/04/21 05:32:29;;;;;;;19.45;11.25;;;;;;;6.62;100.00;99073.38;5114216;28;20043;-76
2022/04/21 05:34:57;;;;;;;19.80;11.77;;;;;;;6.72;100.00;99064.84;5113557;27;20051;-76
2022/04/21 05:37:25;;;;;;;22.05;11.95;;;;;;;6.73;100.00;99069.25;5113447;27;20370;-76
2022/04/21 05:39:53;;;;;;;19.38;11.13;;;;;;;6.77;100.00;99063.66;5113595;27;20043;-76
2022/04/21 05:42:23;;;;;;;18.65;10.98;;;;;;;6.80;100.00;99066.16;5112841;28;20093;-76
2022/04/21 05:44:53;;;;;;;18.80;10.85;;;;;;;6.79;100.00;99060.91;5114697;27;20114;-76
2022/04/21 05:47:22;;;;;;;18.85;10.20;;;;;;;6.76;100.00;99066.44;5115013;28;20051;-76
2022/04/21 05:49:50;;;;;;;18.15;10.75;;;;;;;6.78;100.00;99056.47;5129175;27;20099;-76
2022/04/21 05:52:18;;;;;;;17.83;10.50;;;;;;;6.87;100.00;99053.31;5133903;27;20514;-76
2022/04/21 05:54:47;;;;;;;21.50;10.43;;;;;;;6.88;100.00;99056.84;5133791;27;20484;-77
2022/04/21 05:57:14;;;;;;;18.85;10.57;;;;;;;6.84;100.00;99064.19;5092512;28;20070;-76
2022/04/21 05:59:41;;;;;;;19.13;10.80;;;;;;;6.90;100.00;99063.00;5092866;28;20052;-76
2022/04/21 06:02:11;;;;;;;19.63;10.57;;;;;;;6.84;100.00;99057.94;5092903;28;20513;-76
2022/04/21 06:04:38;;;;;;;18.02;9.45;;;;;;;6.86;100.00;99051.56;5093141;28;20040;-76
2022/04/21 06:07:06;;;;;;;19.80;10.93;;;;;;;6.82;100.00;99055.38;5097104;28;20036;-76
2022/04/21 06:09:33;;;;;;;22.33;11.07;;;;;;;6.76;100.00;99061.06;5096730;28;20504;-76
2022/04/21 06:12:02;;;;;;;18.83;10.15;;;;;;;6.77;100.00;99068.16;5096461;28;20438;-76
2022/04/21 06:14:29;;;;;;;19.52;9.73;;;;;;;6.82;100.00;99060.75;5096709;28;20052;-77
2022/04/21 06:16:58;;;;;;;16.58;9.55;;;;;;;6.83;100.00;99059.78;5096599;28;20476;-76
2022/04/21 06:19:26;;;;;;;16.55;9.27;;;;;;;6.86;100.00;99056.94;5096503;28;20044;-76
2022/04/21 06:21:54;;;;;;;16.15;9.00;;;;;;;6.85;100.00;99057.00;5096672;28;20044;-76
2022/04/21 06:24:21;;;;;;;19.05;9.50;;;;;;;6.90;100.00;99057.63;5096417;28;20044;-76
2022/04/21 06:26:49;;;;;;;18.90;9.45;;;;;;;7.00;100.00;99061.56;5096124;28;20051;-78
2022/04/21 06:29:16;;;;;;;16.55;8.93;;;;;;;7.08;100.00;99063.81;5096445;28;20489;-76
2022/04/21 06:31:45;;;;;;;19.27;9.75;;;;;;;7.15;100.00;99059.88;5096329;28;20409;-76
2022/04/21 06:34:12;;;;;;;17.67;9.50;;;;;;;7.14;100.00;99059.94;5096135;28;20071;-76
2022/04/21 06:36:41;;;;;;;18.45;9.82;;;;;;;7.16;100.00;99066.97;5096147;28;20113;-76
2022/04/21 06:39:09;;;;;;;17.90;9.45;;;;;;;7.17;100.00;99057.97;5096155;28;20463;-77
2022/04/21 06:41:37;;;;;;;16.25;9.35;;;;;;;7.18;100.00;99057.00;5095682;28;20547;-76
2022/04/21 06:49:42;;;;;;;16.58;9.70;;;;;;;7.20;100.00;99052.41;5053313;28;20056;-76
2022/04/21 06:52:11;;;;;;;15.57;8.93;;;;;;;7.20;100.00;99057.78;5053521;28;20110;-76
2022/04/21 06:54:39;;;;;;;16.45;9.20;;;;;;;7.27;100.00;99054.75;5052846;28;20052;-76
2022/04/21 06:57:06;;;;;;;15.38;8.90;;;;;;;7.21;100.00;99047.91;5052066;28;20449;-76
2022/04/21 06:59:34;;;;;;;17.80;9.45;;;;;;;7.34;100.00;99048.09;5049348;28;20060;-76
2022/04/21 07:02:01;;;;;;;14.32;8.50;;;;;;;7.30;100.00;99054.59;5048843;28;20118;-76
2022/04/21 07:04:29;;;;;;;16.50;9.68;;;;;;;7.35;100.00;99048.03;5049273;28;20088;-76
2022/04/21 07:06:56;;;;;;;16.77;9.48;;;;;;;7.30;100.00;99049.22;5049190;28;20461;-76
2022/04/21 07:09:25;;;;;;;17.00;9.35;;;;;;;7.39;100.00;99048.69;5047321;28;20053;-77
2022/04/21 07:11:53;;;;;;;15.93;9.15;;;;;;;7.38;100.00;99055.91;5048260;28;20418;-77
2022/04/21 07:14:20;;;;;;;17.92;10.20;;;;;;;7.38;100.00;99046.97;5048048;28;20052;-77
2022/04/21 07:16:47;;;;;;;15.88;9.38;;;;;;;7.36;100.00;99054.25;5048178;28;20070;-76
2022/04/21 07:19:15;;;;;;;17.40;9.35;;;;;;;7.46;100.00;99049.25;5048290;28;20167;-76
2022/04/21 07:21:42;;;;;;;17.70;9.70;;;;;;;7.45;100.00;99053.72;5051201;28;20061;-76
2022/04/21 07:24:10;;;;;;;18.05;9.85;;;;;;;7.46;100.00;99055.47;5110169;28;20557;-76
2022/04/21 07:26:39;;;;;;;15.77;9.15;;;;;;;7.52;100.00;99056.94;5111056;28;20048;-76
2022/04/21 07:29:06;;;;;;;16.73;9.68;;;;;;;7.47;100.00;99053.66;5111525;28;20464;-76
2022/04/21 07:31:35;;;;;;;16.00;9.25;;;;;;;7.43;100.00;99058.31;5110969;28;20048;-76
2022/04/21 07:34:02;;;;;;;16.42;9.55;;;;;;;7.45;100.00;99055.56;5111758;28;20047;-76
2022/04/21 07:36:30;;;;;;;18.13;9.57;;;;;;;7.37;100.00;99053.28;5111740;28;20128;-77
2022/04/21 07:38:57;;;;;;;17.80;10.00;;;;;;;7.46;100.00;99055.47;5110881;28;20047;-77
2022/04/21 07:41:25;;;;;;;16.20;9.10;;;;;;;7.39;100.00;99048.69;5110845;28;20044;-76
2022/04/21 07:43:54;;;;;;;20.98;9.38;;;;;;;7.37;100.00;99056.88;5109209;27;20043;-76
2022/04/21 07:46:21;;;;;;;18.02;9.85;;;;;;;7.40;100.00;99061.19;5118465;27;20821;-77
2022/04/21 07:51:33;;;;;;;18.60;9.48;;;;;;;7.41;100.00;99057.53;5132981;27;20039;-78
2022/04/21 07:54:00;;;;;;;19.27;10.00;;;;;;;7.37;100.00;99064.03;5131341;27;20051;-76
2022/04/21 07:56:28;;;;;;;16.80;10.40;;;;;;;7.45;100.00;99059.09;5117888;27;20051;-76
2022/04/21 07:58:57;;;;;;;16.80;9.93;;;;;;;7.43;100.00;99066.38;5111301;28;20044;-76
2022/04/21 08:01:24;;;;;;;16.67;10.30;;;;;;;7.44;100.00;99065.44;5111195;28;20069;-76
2022/04/21 08:03:52;;;;;;;18.67;9.98;;;;;;;7.41;100.00;99068.28;5110733;28;20055;-76
2022/04/21 08:06:19;;;;;;;16.58;9.93;;;;;;;7.42;100.00;99070.03;5116106;27;20059;-76
2022/04/21 08:08:47;;;;;;;17.38;10.20;;;;;;;7.45;100.00;99066.31;5120926;27;20047;-76
2022/04/21 08:11:14;;;;;;;17.48;10.55;;;;;;;7.43;100.00;99076.28;5121652;27;20066;-77
2022/04/21 08:13:41;;;;;;;17.15;10.32;;;;;;;7.40;100.00;99074.63;5118116;27;20108;-76
2022/04/21 08:16:10;;;;;;;18.05;9.90;;;;;;;7.42;100.00;99071.84;5117985;27;20054;-78
2022/04/21 08:18:38;;;;;;;17.23;10.00;;;;;;;7.41;100.00;99068.28;5111154;27;20073;-77
2022/04/21 08:21:06;;;;;;;16.73;10.43;;;;;;;7.42;100.00;99072.72;5111122;28;20036;-77
2022/04/21 08:23:37;;;;;;;18.25;10.70;;;;;;;7.42;100.00;99077.22;5110819;28;20039;-77
2022/04/21 08:34:22;;;;;;;24.55;12.52;;;;;;;7.51;100.00;99069.50;5111329;28;20048;-79
2022/04/21 08:36:50;;;;;;;25.20;14.57;;;;;;;7.53;100.00;99072.13;5110378;28;20062;-77
2022/04/21 08:39:17;;;;;;;20.67;10.82;;;;;;;7.59;100.00;99071.75;5110164;28;20504;-77
2022/04/21 08:41:49;;;;;;;19.33;10.93;;;;;;;7.64;100.00;99060.78;5110473;28;20043;-76
2022/04/21 08:44:19;;;;;;;20.38;10.68;;;;;;;7.66;100.00;99065.09;5111340;28;20053;-77
2022/04/21 08:46:49;;;;;;;18.55;10.70;;;;;;;7.68;100.00;99070.38;5111513;27;20051;-76
2022/04/21 08:49:19;;;;;;;19.00;11.35;;;;;;;7.63;100.00;99072.47;5121674;27;20377;-78
2022/04/21 08:51:46;;;;;;;18.20;10.88;;;;;;;7.64;100.00;99058.09;5130222;27;20385;-77
2022/04/21 08:54:14;;;;;;;16.55;10.15;;;;;;;7.65;100.00;99062.50;5131121;27;20542;-81
2022/04/21 08:56:42;;;;;;;17.50;10.50;;;;;;;7.69;100.00;99066.75;5114973;27;20054;-77
2022/04/21 08:59:10;;;;;;;18.60;11.38;;;;;;;7.62;100.00;99066.22;5109661;28;20058;-76
2022/04/21 09:01:38;;;;;;;17.27;10.70;;;;;;;7.66;100.00;99067.78;5109924;28;20524;-76
2022/04/21 09:04:06;;;;;;;19.15;10.82;;;;;;;7.66;100.00;99066.94;5109836;28;20048;-76
2022/04/21 09:06:38;;;;;;;19.08;10.65;;;;;;;7.66;100.00;99062.41;5109668;27;20056;-76
2022/04/21 09:09:16;;;;;;;17.42;10.55;;;;;;;7.67;100.00;99071.34;5110573;28;20104;-78
2022/04/21 09:11:44;;;;;;;21.08;10.85;;;;;;;7.71;100.00;99070.22;5108753;28;20135;-76
2022/04/21 09:14:16;;;;;;;19.90;10.52;;;;;;;7.73;100.00;99060.25;5109585;28;20500;-77
2022/04/21 09:16:44;;;;;;;19.10;10.20;;;;;;;7.73;100.00;99068.31;5112328;28;20047;-77
2022/04/21 09:19:14;;;;;;;16.90;10.05;;;;;;;7.76;100.00;99057.38;5112118;28;20067;-80
2022/04/21 09:21:42;;;;;;;22.10;13.30;;;;;;;7.78;100.00;99062.69;5111028;28;20052;-78
2022/04/21 09:24:20;;;;;;;17.35;10.60;;;;;;;7.82;100.00;99062.41;5114160;27;20481;-77
2022/04/21 09:26:48;;;;;;;18.73;10.60;;;;;;;7.81;100.00;99070.56;5111152;28;20043;-79
2022/04/21 09:29:23;;;;;;;17.40;10.20;;;;;;;7.76;100.00;99062.75;5111701;28;20362;-79
2022/04/21 09:31:56;;;;;;;16.77;11.27;;;;;;;7.80;100.00;99064.31;5110487;28;20055;-77
2022/04/21 09:34:25;;;;;;;16.63;10.38;;;;;;;7.85;100.00;99064.06;5110221;28;20043;-78
2022/04/21 09:36:55;;;;;;;17.67;11.02;;;;;;;7.89;100.00;99056.66;5112045;28;20047;-77
2022/04/21 09:39:23;;;;;;;17.95;10.00;;;;;;;7.93;100.00;99056.41;5111997;28;20547;-77
2022/04/21 09:41:53;;;;;;;18.27;9.65;;;;;;;7.97;100.00;99051.72;5115685;28;20059;-78
2022/04/21 09:47:07;;;;;;;16.77;10.52;;;;;;;8.01;100.00;99055.09;5114696;28;20484;-78
2022/04/21 09:49:38;;;;;;;18.83;11.13;;;;;;;8.12;100.00;99058.00;5114919;28;20052;-80
2022/04/21 09:52:07;;;;;;;29.58;19.65;;;;;;;8.18;100.00;99062.16;5113583;28;20051;-78
2022/04/21 09:54:35;;;;;;;29.55;17.15;;;;;;;8.20;100.00;99058.44;5115713;28;20043;-80
2022/04/21 09:57:03;;;;;;;30.92;17.05;;;;;;;8.26;100.00;99057.19;5115277;28;20040;-81
2022/04/21 09:59:35;;;;;;;34.10;20.20;;;;;;;8.33;100.00;99055.88;5115302;28;20142;-76
2022/04/21 10:02:03;;;;;;;23.00;13.55;;;;;;;8.40;100.00;99051.88;5118792;27;20040;-76
2022/04/21 10:04:31;;;;;;;36.30;23.98;;;;;;;8.27;100.00;99062.50;5117000;27;20051;-77
2022/04/21 10:07:00;;;;;;;28.55;18.15;;;;;;;8.30;100.00;99069.50;5116914;27;20105;-76
2022/04/21 10:09:28;;;;;;;32.08;20.60;;;;;;;8.24;100.00;99059.13;5116780;27;20374;-77
2022/04/21 10:11:58;;;;;;;42.95;28.27;;;;;;;8.18;100.00;99059.47;5116891;27;20100;-79
2022/04/21 10:14:27;;;;;;;46.72;30.60;;;;;;;8.12;100.00;99066.06;5116950;27;20401;-77
2022/04/21 10:16:54;;;;;;;49.22;27.98;;;;;;;8.07;100.00;99071.75;5116461;27;20043;-77
2022/04/21 10:19:24;;;;;;;44.53;25.52;;;;;;;8.06;100.00;99067.31;5116116;27;20120;-77
2022/04/21 10:21:53;;;;;;;43.45;24.42;;;;;;;8.08;100.00;99073.47;5116368;28;20044;-77
2022/04/21 10:24:24;;;;;;;39.13;21.35;;;;;;;8.08;100.00;99073.47;5116703;27;20492;-78
2022/04/21 10:26:52;;;;;;;35.25;21.65;;;;;;;8.06;100.00;99079.88;5120728;27;20103;-77
2022/04/21 10:29:22;;;;;;;40.75;23.17;;;;;;;8.02;100.00;99076.53;5116297;28;20050;-78
2022/04/21 10:31:55;;;;;;;29.23;17.08;;;;;;;8.03;100.00;99091.72;5115690;27;20047;-80
2022/04/21 10:34:32;;;;;;;20.50;12.45;;;;;;;7.99;100.00;99090.16;5117893;27;20480;-77
2022/04/21 10:37:07;;;;;;;21.52;11.02;;;;;;;8.03;100.00;99089.03;5115326;27;20448;-78
2022/04/21 10:39:36;;;;;;;37.97;19.10;;;;;;;8.01;100.00;99099.00;5120272;27;20035;-78
2022/04/21 10:42:15;;;;;;;44.10;21.77;;;;;;;8.05;100.00;99094.28;5116071;27;20044;-81
2022/04/21 10:44:44;;;;;;;67.47;35.17;;;;;;;8.01;100.00;99103.50;5113657;28;20108;-81
2022/04/21 10:47:32;;;;;;;48.83;24.88;;;;;;;7.95;100.00;99100.22;5113820;28;20040;-79
2022/04/21 10:50:00;;;;;;;55.40;25.45;;;;;;;7.97;100.00;99102.81;5117402;27;20040;-79
2022/04/21 10:58:49;;;;;;;68.18;30.95;;;;;;;7.93;100.00;99109.31;5117753;28;20500;-79
2022/04/21 11:01:19;;;;;;;112.70;47.15;;;;;;;7.87;100.00;99109.66;5117195;28;20051;-78
2022/04/21 11:04:04;;;;;;;70.28;30.83;;;;;;;7.94;100.00;99109.22;5117422;28;20515;-82
2022/04/21 11:06:40;;;;;;;67.10;28.13;;;;;;;7.95;100.00;99108.28;5111213;28;20051;-77
2022/04/21 11:09:08;;;;;;;67.53;26.70;;;;;;;7.97;100.00;99114.44;5110328;28;20099;-76
2022/04/21 11:11:47;;;;;;;99.40;40.55;;;;;;;7.97;100.00;99111.75;5111210;27;20054;-79
2022/04/21 11:14:29;;;;;;;49.05;22.23;;;;;;;7.97;100.00;99116.28;5112006;28;20036;-76
2022/04/21 11:16:57;;;;;;;59.42;26.90;;;;;;;8.01;100.00;99108.88;5112035;28;20054;-76
2022/04/21 11:19:32;;;;;;;91.78;38.88;;;;;;;7.97;100.00;99124.34;5111821;27;20044;-75
2022/04/21 11:22:01;;;;;;;75.95;33.38;;;;;;;7.97;100.00;99118.97;5110899;28;20044;-76
2022/04/21 11:24:30;;;;;;;46.90;21.88;;;;;;;7.98;100.00;99118.84;5113198;28;20181;-75
2022/04/21 11:27:00;;;;;;;55.65;23.83;;;;;;;8.02;100.00;99124.94;5112852;28;20050;-76
2022/04/21 11:29:29;;;;;;;55.08;25.73;;;;;;;8.03;100.00;99132.03;5119157;27;20035;-76
2022/04/21 11:31:57;;;;;;;74.07;31.52;;;;;;;8.01;100.00;99130.38;5115304;28;20047;-84
2022/04/21 11:34:25;;;;;;;115.10;45.25;;;;;;;7.94;100.00;99127.16;5114805;28;20044;-76
2022/04/21 11:36:54;;;;;;;87.35;39.13;;;;;;;7.98;100.00;99126.06;5115028;28;20040;-75
2022/04/21 11:39:21;;;;;;;61.67;30.23;;;;;;;8.05;100.00;99126.56;5115272;28;20392;-76
2022/04/21 11:41:52;;;;;;;53.55;25.98;;;;;;;8.06;100.00;99122.91;5114897;28;20047;-76
2022/04/21 11:44:26;;;;;;;29.08;15.38;;;;;;;8.04;100.00;99125.72;5114225;28;20050;-76
2022/04/21 11:46:54;;;;;;;27.10;15.63;;;;;;;8.06;100.00;99123.81;5115623;28;20035;-75
2022/04/21 11:49:22;;;;;;;23.35;13.52;;;;;;;8.04;100.00;99125.72;5116780;27;20040;-77
2022/04/21 11:51:53;;;;;;;22.15;12.50;;;;;;;8.04;100.00;99125.72;5115129;28;20055;-76
2022/04/21 11:54:20;;;;;;;21.27;12.13;;;;;;;8.07;100.00;99120.16;5113786;28;20093;-76
2022/04/21 11:56:51;;;;;;;19.55;12.43;;;;;;;8.08;100.00;99127.28;5116662;27;20040;-76
2022/04/21 11:59:18;;;;;;;18.52;11.27;;;;;;;8.07;100.00;99119.28;5114531;28;20031;-75
2022/04/21 12:07:19;;;;;;;14.85;8.88;;;;;;;8.03;100.00;99123.97;5049284;28;20100;-79
2022/04/21 12:09:48;;;;;;;17.20;8.10;;;;;;;8.05;100.00;99129.25;5047878;28;20619;-77
2022/04/21 12:12:16;;;;;;;14.60;8.73;;;;;;;8.03;100.00;99126.66;5044326;28;20518;-77
2022/04/21 12:14:44;;;;;;;17.40;8.13;;;;;;;8.05;100.00;99127.44;5046615;28;20464;-76
2022/04/21 12:17:13;;;;;;;13.18;7.82;;;;;;;8.10;100.00;99125.34;5047646;28;20057;-76